首页
METAR-TAF:

METAR-TAF

机场 :

泰德·史蒂文斯安克雷奇國際機場

安克拉治, 阿拉斯加州, 美国

纬度: 61-10-28N, 经度: 149-59-46W, 海拔: 44米

当前天气观测

该预报发布于43分钟前的11:53 UTC
风速4节,风向东南
温度 11°C
湿度 82%
气压 1026 hPa
能見度: 16.1公里
天空无云

METAR: PANC 181153Z 14004KT 10SM CLR 11/08 A3029 RMK AO2 SLP259 T01110078 10139 20100 51004

时间: 04:36 (12:36 UTC)

预报

该预报发布于1小时和5分钟前的11:31 UTC
预报有效从18日的 12点(UTC)到 19日的 18点(UTC)
风速5节,风向东南
能見度: 10公里
少量云层高于2000英尺
散云层高于5000英尺
多云层高于7000英尺
从 18日的 1800点(UTC)
风速4节,风向多变
能見度: 10公里
散云层高于3500英尺
多云层高于5000英尺
附近有阵雨
从 19日的 0000点(UTC)
风速9节,风向东转东南
能見度: 10公里
散云层高于5000英尺
多云层高于8000英尺
从 19日的 1500点(UTC)
风速5节,风向多变
能見度: 10公里
散云层高于4000英尺
多云层高于7000英尺

TAF: PANC 181131Z 1812/1918 14005KT P6SM FEW020 SCT050 BKN070 FM181800 VRB04KT P6SM VCSH SCT035 BKN050 FM190000 12009KT P6SM SCT050 BKN080 FM191500 VRB05KT P6SM SCT040 BKN070

超过4000个机场的气象观测和天气预报(METAR&TAF报告)。

可查询的气象台以黄色和红色小点在地图上表示。

将鼠标移到小点上方,可查看气象台名称。

然后点击查看天气观测和预报。

如需切换地图:点击带黑十字的绿色按钮放大地图;点击带横线的绿色按钮缩小地图;或者点击绿色箭头查看邻近地区的地图。


METAR-TAF: